Lipetsk, Russia
Current Conditions -  °F | °C
As of 9:00 AM on Wednesday 26 Nov 2014 (Local Time) from UUOO Reporting Station
Clear Clear  
Wind Chill:   Ceiling: Unl
Heat Index:   Visibility: 6mi
Dew Point:   Wind: 2mph
Humidity: 78%   Direction: NA
Pressure: 30.5"   Gusts: NA
Location:  52.62°N, 39.62°E
Report Text: UUOO 260600Z VRB01MPS CAVOK M15/M18 Q1033 NOSIG RMK 12090070
Loading
Personal Weather Stations






























Interactive Weather Map New forecast layout! Learn more

10-Day Weather Forecast

Advertisements
Track Severe Weather on mobile